Latest Coastal Weather Observations for Devonport Airport

IDT60701

Issued at 4:45 am EST Sunday 24 August 2014 (issued every 10 minutes, with the page automatically refreshed every 10 minutes)

About coastal observations | Map of coastal stations | Coastal observations for TAS | Marine services | Other Formats
Station Details ID: 091126 Name: DEVONPORT AIRPORT Lat: -41.17 Lon: 146.43 Height: 8.0 m
Data from the previous 72 hours. | See also: Recent months at Devonport Airport
Date/Time
EST
Temp

°C
Wind Pressure Rain
since 9am
mm
Weather Cloud Vis
km
Sea
Height
m
Swell
Dir
 
Speed
knots
Gust
knots
hPa Trend Height
m
Period
s
Dir
24/04:30am 11.0 S 4 6 1024.4 - 2.4 - Cloudy 10 - - - -
24/04:00am 11.3 S 3 4 1024.6 - 2.2 - Partly cloudy 10 - - - -
24/03:30am 11.5 WSW 3 4 1025.1 - 2.0 - Cloudy 8 - - - -
24/03:00am 11.9 NW 6 7 1025.3 - 0.8 Rain Cloudy 10 - - - -
24/02:52am 11.9 NW 7 9 1025.2 - 0.6 - Partly cloudy 10 - - - -
24/02:30am 12.6 N 15 19 1025.3 - 0.4 - Partly cloudy 7 - - - -
24/02:00am 13.5 NE 17 23 1025.2 - 0.0 - Partly cloudy 10 - - - -
24/01:30am 13.8 ENE 17 22 1025.6 - 0.0 - Cloudy 10 - - - -
24/01:00am 13.8 ENE 19 24 1025.4 - 0.0 - Cloudy 10 - - - -
24/12:30am 13.8 ENE 19 25 1025.5 - 0.0 - Cloudy 10 - - - -
24/12:08am 13.7 ENE 18 25 1025.9 - 0.0 - Partly cloudy 10 - - - -
24/12:00am 13.7 ENE 18 24 1026.0 - 0.0 - Cloudy 10 - - - -
 
Date/Time
EST
Temp

°C
Wind Pressure Rain
since 9am
mm
Weather Cloud Vis
km
Sea
Height
m
Swell
Dir
 
Speed
knots
Gust
knots
hPa Trend Height
m
Period
s
Dir
23/11:30pm 13.4 ENE 17 21 1026.4 - 0.0 - Partly cloudy 10 - - - -
23/11:00pm 13.2 ENE 15 21 1026.7 - 0.0 - Partly cloudy 10 - - - -
23/10:30pm 13.2 E 15 19 1027.0 - 0.0 - Partly cloudy 10 - - - -
23/10:00pm 13.3 ENE 15 21 1027.3 - 0.0 - Cloudy 10 - - - -
23/09:30pm 13.2 ENE 15 19 1027.6 - 0.0 - Partly cloudy 10 - - - -
23/09:00pm 13.0 ENE 14 18 1027.8 - 0.0 - Cloudy 10 - - - -
23/08:30pm 13.3 ENE 16 21 1027.8 - 0.0 - Partly cloudy 10 - - - -
23/08:00pm 13.4 ENE 13 18 1027.9 - 0.0 - Partly cloudy 10 - - - -
23/07:30pm 13.3 ENE 13 16 1028.1 - 0.0 - Partly cloudy 10 - - - -
23/07:00pm 13.3 ENE 11 15 1028.2 - 0.0 - Cloudy 10 - - - -
23/06:30pm 13.0 ENE 11 13 1028.2 - 0.0 - Partly cloudy 10 - - - -
23/06:00pm 12.7 E 10 13 1028.1 - 0.0 - Cloudy 10 - - - -
23/05:30pm 12.7 ENE 10 13 1027.9 - 0.0 - Partly cloudy 10 - - - -
23/05:00pm 13.4 ENE 13 16 1027.9 - 0.0 - Partly cloudy 10 - - - -
23/04:30pm 14.0 ENE 14 17 1027.9 - 0.0 - Partly cloudy 10 - - - -
23/04:00pm 14.1 ENE 13 15 1027.8 - 0.0 - Partly cloudy 10 - - - -
23/03:42pm 14.5 ENE 14 18 1027.8 - 0.0 - Partly cloudy 10 - - - -
23/03:30pm 14.6 ENE 15 19 1027.9 - 0.0 - Partly cloudy 10 - - - -
23/03:00pm 14.8 ENE 15 18 1028.1 - 0.0 - Mostly cloudy 10 - - - -
23/02:30pm 15.0 ENE 16 18 1028.2 - 0.0 - Partly cloudy 10 - - - -
23/02:23pm 14.8 ENE 16 18 1028.2 - 0.0 - Partly cloudy 10 - - - -
23/02:22pm 14.7 ENE 16 18 1028.2 - 0.0 - Partly cloudy 10 - - - -
23/02:00pm 15.0 ENE 15 18 1028.5 - 0.0 - Cloudy 10 - - - -
23/01:30pm 15.2 ENE 16 19 1028.7 - 0.0 - Cloudy 10 - - - -
23/01:00pm 15.0 ENE 15 19 1029.1 - 0.0 - Cloudy 10 - - - -
23/12:30pm 14.6 ENE 15 18 1029.4 - 0.0 - Partly cloudy 10 - - - -
23/12:06pm 15.1 NE 15 18 1029.8 - 0.0 - Partly cloudy 10 - - - -
23/12:00pm 14.6 ENE 15 19 1029.9 - 0.0 - Cloudy 10 - - - -
23/11:30am 14.8 ENE 17 21 1030.3 - 0.0 - Partly cloudy 10 - - - -
23/11:00am 15.4 ENE 17 21 1030.5 - 0.0 - Partly cloudy 10 - - - -
23/10:30am 15.1 ENE 18 22 1030.6 - 0.0 - Partly cloudy 10 - - - -
23/10:00am 14.3 ENE 16 21 1030.8 - 0.0 - Cloudy 10 - - - -
23/09:30am 13.9 ENE 17 21 1030.8 - 0.0 - Cloudy 10 - - - -
23/09:00am 14.4 ENE 15 18 1030.9 - 0.0 - Cloudy 10 - - - -
23/08:30am 13.7 E 10 14 1031.0 - 0.0 - Partly cloudy 10 - - - -
23/08:00am 12.6 E 8 12 1031.1 - 0.0 - Partly cloudy 10 - - - -
23/07:30am 11.6 E 8 11 1031.0 - 0.0 - Partly cloudy 10 - - - -
23/07:00am 11.4 E 7 9 1030.8 - 0.0 - Partly cloudy 10 - - - -
23/06:30am 10.3 ESE 5 7 1030.7 - 0.0 - Partly cloudy 10 - - - -
23/06:00am 11.5 E 8 10 1030.5 - 0.0 - Cloudy 10 - - - -
23/05:30am 10.4 SE 5 9 1030.4 - 0.0 - Partly cloudy 10 - - - -
23/05:00am 9.4 S 6 8 1030.4 - 0.0 - Partly cloudy 10 - - - -
23/04:30am 9.2 S 7 9 1030.3 - 0.0 - Partly cloudy 10 - - - -
23/04:00am 9.2 S 7 8 1030.3 - 0.0 - Partly cloudy 10 - - - -
23/03:30am 9.0 SE 5 6 1030.4 - 0.0 - Partly cloudy 10 - - - -
23/03:00am 9.3 SE 6 7 1030.5 - 0.0 - Partly cloudy 10 - - - -
23/02:30am 8.9 SSE 6 7 1030.8 - 0.0 - Partly cloudy 10 - - - -
23/02:00am 9.7 S 7 8 1031.2 - 0.0 - Cloudy 10 - - - -
23/01:30am 9.3 SE 4 5 1031.4 - 0.0 - Cloudy 10 - - - -
23/01:00am 9.5 ESE 5 6 1031.3 - 0.0 - Partly cloudy 10 - - - -
23/12:30am 8.9 SSE 6 7 1031.5 - 0.0 - Partly cloudy 10 - - - -
23/12:00am 9.4 S 7 7 1031.6 - 0.0 - Cloudy 10 - - - -
 
Date/Time
EST
Temp

°C
Wind Pressure Rain
since 9am
mm
Weather Cloud Vis
km
Sea
Height
m
Swell
Dir
 
Speed
knots
Gust
knots
hPa Trend Height
m
Period
s
Dir
22/11:30pm 9.6 SSE 6 7 1031.6 - 0.0 - Partly cloudy 10 - - - -
22/11:00pm 9.6 SSE 8 8 1031.8 - 0.0 - Partly cloudy 10 - - - -
22/10:30pm 9.1 SSE 7 9 1032.0 - 0.0 - Partly cloudy 10 - - - -
22/10:00pm 9.0 S 7 8 1032.1 - 0.0 - Partly cloudy 10 - - - -
22/09:30pm 8.0 S 7 8 1032.0 - 0.0 - Partly cloudy 10 - - - -
22/09:00pm 8.2 SE 6 6 1032.0 - 0.0 - - 10 - - - -
22/08:30pm 8.9 SE 5 6 1032.0 - 0.0 - - 10 - - - -
22/08:00pm 10.2 E 5 6 1031.9 - 0.0 - - 10 - - - -
22/07:30pm 9.6 E 5 6 1031.7 - 0.0 - - 10 - - - -
22/07:00pm 10.2 E 5 6 1031.8 - 0.0 - - 10 - - - -
22/06:30pm 10.6 E 6 7 1031.7 - 0.0 - - 10 - - - -
22/06:00pm 11.2 ENE 5 6 1031.6 - 0.0 - Mostly cloudy 10 - - - -
22/05:30pm 12.3 ENE 7 9 1031.3 - 0.0 - Partly cloudy 10 - - - -
22/05:00pm 13.1 NE 10 11 1031.1 - 0.0 - Partly cloudy 10 - - - -
22/04:30pm 13.1 ENE 10 13 1030.9 - 0.0 - Cloudy 10 - - - -
22/04:00pm 13.6 NE 10 12 1031.0 - 0.0 - Cloudy 10 - - - -
22/03:30pm 13.8 NE 12 15 1031.0 - 0.0 - Partly cloudy 10 - - - -
22/03:00pm 14.2 NE 12 15 1031.2 - 0.0 - Cloudy 10 - - - -
22/02:30pm 14.1 NE 13 16 1031.3 - 0.0 - Partly cloudy 10 - - - -
22/02:00pm 14.2 NE 13 16 1031.5 - 0.0 - Partly cloudy 10 - - - -
22/01:30pm 14.4 NE 13 16 1031.8 - 0.0 - Partly cloudy 10 - - - -
22/01:00pm 14.3 NE 14 17 1032.1 - 0.0 - - 10 - - - -
22/12:30pm 14.3 NE 15 18 1032.3 - 0.0 - - 10 - - - -
22/12:00pm 14.3 NE 15 18 1032.6 - 0.0 - Mostly clear 10 - - - -
22/11:30am 14.6 NE 15 20 1033.0 - 0.0 - - 10 - - - -
22/11:00am 14.4 ENE 14 18 1033.3 - 0.0 - - 10 - - - -
22/10:30am 14.5 ENE 14 17 1033.5 - 0.0 - - 10 - - - -
22/10:00am 14.1 ENE 13 17 1033.6 - 0.0 - Cloudy 10 - - - -
22/09:30am 13.5 ENE 11 15 1033.7 - 0.0 - Cloudy 10 - - - -
22/09:00am 13.1 ENE 9 11 1033.8 - 0.0 - Mostly cloudy 10 - - - -
22/08:30am 12.1 E 9 13 1033.8 - 0.0 - Cloudy 10 - - - -
22/08:00am 11.5 E 9 12 1033.7 - 0.0 - Partly cloudy 10 - - - -
22/07:30am 10.7 E 10 13 1033.3 - 0.0 - Partly cloudy 10 - - - -
22/07:00am 10.8 E 9 13 1033.1 - 0.0 - Cloudy 10 - - - -
22/06:30am 10.7 ESE 6 9 1033.1 - 0.0 - Cloudy 10 - - - -
22/06:00am 9.9 S 5 6 1033.1 - 0.0 - Cloudy 10 - - - -
22/05:30am 9.9 SSE 6 7 1033.0 - 0.0 - Cloudy 10 - - - -
22/05:00am 10.2 SSE 4 6 1033.0 - 0.0 - Cloudy 10 - - - -
22/04:30am 10.5 SE 5 7 1032.9 - 0.0 - Cloudy 10 - - - -
22/04:00am 10.8 ESE 6 7 1032.8 - 0.0 - Cloudy 10 - - - -
22/03:30am 11.0 ESE 7 9 1032.7 - 0.0 - Cloudy 10 - - - -
22/03:00am 10.9 ESE 6 8 1032.8 - 0.0 - Mostly cloudy 10 - - - -
22/02:30am 10.8 E 7 10 1032.9 - 0.0 - Cloudy 10 - - - -
22/02:00am 10.8 E 8 9 1033.2 - 0.0 - Cloudy 10 - - - -
22/01:30am 10.3 ESE 4 6 1033.4 - 0.0 - Cloudy 10 - - - -
22/01:00am 10.7 ESE 7 8 1033.5 - 0.0 - Cloudy 10 - - - -
22/12:30am 10.9 E 7 10 1033.6 - 0.0 - Partly cloudy 10 - - - -
22/12:00am 10.4 E 7 9 1033.7 - 0.0 - Cloudy 10 - - - -
 
Date/Time
EST
Temp

°C
Wind Pressure Rain
since 9am
mm
Weather Cloud Vis
km
Sea
Height
m
Swell
Dir
 
Speed
knots
Gust
knots
hPa Trend Height
m
Period
s
Dir
21/11:30pm 9.7 E 7 8 1033.7 - 0.0 - Partly cloudy 10 - - - -
21/11:00pm 10.0 E 8 11 1033.6 - 0.0 - Partly cloudy 10 - - - -
21/10:30pm 9.9 E 8 10 1033.5 - 0.0 - - 10 - - - -
21/10:00pm 10.3 E 9 11 1033.5 - 0.0 - Partly cloudy 10 - - - -
21/09:30pm 11.1 E 12 15 1033.4 - 0.0 - Cloudy 10 - - - -
21/09:00pm 11.4 ENE 12 16 1033.2 - 0.0 - Cloudy 10 - - - -
21/08:30pm 11.7 ENE 8 11 1033.1 - 0.0 - Cloudy 10 - - - -
21/08:00pm 11.8 E 10 13 1032.9 - 0.0 - Cloudy 10 - - - -
21/07:30pm 11.7 E 9 12 1032.8 - 0.0 - Cloudy 10 - - - -
21/07:00pm 11.6 E 7 9 1032.6 - 0.0 - Cloudy 10 - - - -
21/06:30pm 11.6 E 7 9 1032.5 - 0.0 - Cloudy 10 - - - -
21/06:00pm 11.5 ENE 5 7 1032.3 - 0.0 - Mostly cloudy 10 - - - -
21/05:30pm 12.1 ENE 8 10 1032.0 - 0.0 - Cloudy 10 - - - -
21/05:00pm 12.4 NE 9 11 1031.7 - 0.0 - Partly cloudy 10 - - - -
21/04:30pm 12.8 NE 7 9 1031.5 - 0.0 - Partly cloudy 10 - - - -
21/04:00pm 13.2 NE 7 10 1031.5 - 0.0 - Partly cloudy 10 - - - -
21/03:30pm 13.5 NE 11 13 1031.4 - 0.0 - Partly cloudy 10 - - - -
21/03:00pm 13.5 NE 10 13 1031.4 - 0.0 - Mostly cloudy 10 - - - -
21/02:30pm 13.6 NE 10 12 1031.5 - 0.0 - Cloudy 10 - - - -
21/02:00pm 14.1 NE 12 16 1031.5 - 0.0 - Partly cloudy 10 - - - -
21/01:30pm 13.3 NE 11 14 1031.8 - 0.0 - Cloudy 10 - - - -
21/01:00pm 14.1 NE 9 12 1032.0 - 0.0 - Cloudy 10 - - - -
21/12:30pm 13.5 NNE 9 11 1032.1 - 0.0 - Cloudy 10 - - - -
21/12:00pm 13.6 NE 8 11 1032.5 - 0.0 - Cloudy 10 - - - -
21/11:30am 13.7 NE 7 9 1032.8 - 0.0 - Partly cloudy 10 - - - -
21/11:00am 13.0 SSE 8 11 1032.8 - 0.0 - Partly cloudy 10 - - - -
21/10:30am 11.9 SSE 8 10 1033.0 - 0.0 - Partly cloudy 10 - - - -
21/10:00am 10.6 SSE 10 12 1033.1 - 0.0 - Cloudy 10 - - - -
21/09:30am 8.5 S 12 14 1033.1 - 0.0 - Cloudy 10 - - - -
21/09:00am 7.5 S 10 13 1033.1 - 0.0 - Cloudy 10 - - - -
21/08:30am 6.8 S 11 13 1033.0 - 0.0 - - 10 - - - -
21/08:00am 6.4 S 10 12 1032.8 - 0.0 - Partly cloudy 10 - - - -
21/07:30am 5.8 S 9 11 1032.3 - 0.0 - Cloudy 10 - - - -
21/07:00am 5.1 S 9 12 1032.0 - 0.0 - Cloudy 10 - - - -
21/06:30am 5.0 S 8 11 1031.8 - 0.0 - Partly cloudy 10 - - - -
21/06:00am 4.3 S 9 12 1031.5 - 0.0 - - 10 - - - -
21/05:30am 4.7 S 9 11 1031.4 - 0.0 - - 10 - - - -
21/05:00am 5.4 S 10 11 1031.3 - 0.0 - - 10 - - - -

Other Formats:

Comma delimited format used in spreadsheet applications
http://www.bom.gov.au/fwo/IDT60701/IDT60701.95960.axf

JavaScript Object Notation format (JSON) in row-major order
http://www.bom.gov.au/fwo/IDT60701/IDT60701.95960.json